Weather at Syamsudin Noor Airport

Public forecast

Using degrees Celsius for public forecast. Weather courtesy of forecast.io.

Current aviation weather report (METAR) for Syamsudin Noor Airport

Retrieved 2021/12/05 09:30 UTC (25 minutes ago):

WAOO 050930Z 24005KT 9999 SCT017 29/24 Q1007 NOSIG

Aviation forecast (TAF) for Syamsudin Noor Airport

Retrieved 2021/12/05 06:00 UTC (4 hours ago):

TAF WAOO 050500Z 0506/0606 27007KT 9999 SCT017 TEMPO 0506/0510 3000 RA TEMPO 0511/0515 2000 TSRA FEW015CB